Time;durP1;ratioP1;P1;durP2;ratioP2;P2;SDS_P1;SDS_P2;PMS_P1;PMS_P2;Temp;Humidity;BMP_temperature;BMP_pressure;BME280_temperature;BME280_humidity;BME280_pressure;Samples;Min_cycle;Max_cycle;Signal;HPM_P1;HPM_P2
2021/09/24 00:02:12;;;;;;;;;2.50;1.00;;;;;15.19;68.19;101664.22;5024300;28;45332;-79
2021/09/24 00:08:14;;;;;;;;;0.00;0.00;;;;;14.24;68.29;101498.63;5014638;28;46269;-79
2021/09/24 00:10:45;;;;;;;;;0.00;0.00;;;;;14.36;68.40;101531.03;5022288;28;45316;-79
2021/09/24 00:13:10;;;;;;;;;1.00;1.00;;;;;13.87;68.77;101457.41;5024199;28;45347;-80
2021/09/24 00:15:44;;;;;;;;;0.00;0.00;;;;;13.97;68.66;101481.91;5027304;28;45260;-79
2021/09/24 00:18:19;;;;;;;;;3.00;0.00;;;;;13.87;68.31;101470.50;5025868;28;46367;-79
2021/09/24 00:20:47;;;;;;;;;1.25;0.25;;;;;14.49;68.85;101569.47;5019750;28;45355;-79
2021/09/24 00:23:19;;;;;;;;;0.00;0.00;;;;;14.80;69.31;101637.81;5012392;28;45435;-79
2021/09/24 00:25:53;;;;;;;;;1.75;0.75;;;;;13.71;68.83;101445.97;5045458;28;45296;-79
2021/09/24 00:28:25;;;;;;;;;1.00;1.00;;;;;14.41;69.03;101565.97;5045172;28;45261;-80
2021/09/24 00:30:51;;;;;;;;;1.00;1.00;;;;;13.88;69.48;101469.63;5044449;28;45301;-80
2021/09/24 00:33:16;;;;;;;;;2.00;0.50;;;;;14.19;69.15;101511.69;5026981;28;45270;-80
2021/09/24 00:35:42;;;;;;;;;1.00;0.00;;;;;15.27;69.34;101690.50;5045152;28;45300;-80
2021/09/24 00:38:13;;;;;;;;;0.00;0.00;;;;;14.25;69.67;101533.56;5027013;28;48052;-80
2021/09/24 00:40:42;;;;;;;;;2.75;1.25;;;;;14.58;69.90;101608.00;5044816;28;45462;-80
2021/09/24 00:43:07;;;;;;;;;1.00;1.00;;;;;13.83;69.64;101447.78;5045065;28;45413;-80
2021/09/24 00:45:59;;;;;;;;;0.50;0.25;;;;;15.19;69.61;101674.72;5045582;28;45675;-80
2021/09/24 00:48:28;;;;;;;;;0.25;0.25;;;;;13.72;69.48;101405.84;5037702;28;46676;-80
2021/09/24 00:51:02;;;;;;;;;0.75;0.75;;;;;14.32;69.47;101524.88;5025862;28;45400;-80
2021/09/24 00:53:34;;;;;;;;;1.75;0.25;;;;;14.34;69.95;101524.88;5043903;28;45461;-81
2021/09/24 00:56:00;;;;;;;;;1.25;0.50;;;;;13.63;70.17;101424.97;5043285;28;45529;-80
2021/09/24 00:58:33;;;;;;;;;2.00;0.75;;;;;14.03;70.93;101504.63;5026266;28;47054;-80
2021/09/24 01:01:32;;;;;;;;;0.00;0.00;;;;;13.71;71.23;101463.41;5043041;28;45391;-80
2021/09/24 01:04:25;;;;;;;;;2.25;1.00;;;;;13.77;71.15;101476.53;5026558;28;45269;-80
2021/09/24 01:07:34;;;;;;;;;0.00;0.00;;;;;13.47;71.24;101444.03;5044352;28;45284;-80
2021/09/24 01:10:34;;;;;;;;;1.00;0.00;;;;;13.68;71.71;101446.84;5043408;28;46355;-79
2021/09/24 01:13:29;;;;;;;;;0.25;0.00;;;;;14.67;71.67;101599.31;5044358;28;45363;-80
2021/09/24 01:16:03;;;;;;;;;0.00;0.00;;;;;13.43;71.61;101389.06;5038324;28;45401;-80
2021/09/24 01:21:42;;;;;;;;;1.00;1.00;;;;;13.31;71.79;101360.22;5036658;28;45616;-81
2021/09/24 01:24:09;;;;;;;;;0.25;0.25;;;;;14.35;72.39;101535.38;5029863;28;45388;-80
2021/09/24 01:30:16;;;;;;;;;0.00;0.00;;;;;13.77;70.89;101390.19;5023903;28;45436;-80
2021/09/24 01:33:08;;;;;;;;;1.25;0.00;;;;;13.60;71.42;101377.00;5043522;28;45242;-80
2021/09/24 01:35:42;;;;;;;;;0.00;0.00;;;;;14.46;71.75;101508.34;5025644;28;45193;-80
2021/09/24 01:42:06;;;;;;;;;0.00;0.00;;;;;14.48;71.50;101497.00;5021377;28;45404;-80
2021/09/24 01:44:35;;;;;;;;;0.00;0.00;;;;;14.44;71.66;101516.22;5029875;28;46231;-80
2021/09/24 01:47:07;;;;;;;;;0.00;0.00;;;;;14.24;71.94;101476.84;5043890;28;45324;-80
2021/09/24 01:49:41;;;;;;;;;0.25;0.00;;;;;13.86;71.92;101395.47;5044929;28;45292;-80
2021/09/24 01:52:30;;;;;;;;;0.00;0.00;;;;;13.92;72.15;101412.94;5042371;28;45566;-80
2021/09/24 01:55:03;;;;;;;;;1.00;0.00;;;;;14.86;71.69;101595.06;5031154;28;45428;-80
2021/09/24 01:57:39;;;;;;;;;0.00;0.00;;;;;13.74;72.23;101387.53;5025924;28;45360;-80
2021/09/24 02:00:43;;;;;;;;;;;;;;;;;;;;;
2021/09/24 02:06:23;;;;;;;;;0.00;0.00;;;;;14.64;72.70;101528.53;5043556;28;47162;-80
2021/09/24 02:09:22;;;;;;;;;0.00;0.00;;;;;15.39;71.84;101633.69;5043407;28;45505;-80
2021/09/24 02:11:54;;;;;;;;;2.00;0.00;;;;;14.65;72.64;101510.19;5042106;28;45357;-80
2021/09/24 02:14:23;;;;;;;;;0.00;0.00;;;;;14.67;71.95;101495.34;5044007;28;45595;-79
2021/09/24 02:17:08;;;;;;;;;;;;;;;;;;;;;
2021/09/24 02:19:34;;;;;;;;;0.00;0.00;;;;;14.65;72.31;101502.34;5042355;28;72857;-80
2021/09/24 02:22:22;;;;;;;;;0.00;0.00;;;;;15.64;71.73;101652.13;5043528;28;45304;-80
2021/09/24 02:25:08;;;;;;;;;1.00;0.00;;;;;15.12;71.69;101557.56;5035421;28;45601;-79
2021/09/24 02:27:36;;;;;;;;;0.00;0.00;;;;;14.49;71.66;101441.13;5025099;28;47744;-80
2021/09/24 02:30:12;;;;;;;;;0.00;0.00;;;;;15.70;71.49;101645.16;5024705;28;45487;-79
2021/09/24 02:32:42;;;;;;;;;0.00;0.00;;;;;14.36;72.06;101407.91;5043876;28;45285;-80
2021/09/24 02:35:11;;;;;;;;;1.50;0.00;;;;;15.50;71.89;101587.34;5044759;28;45528;-81
2021/09/24 02:37:39;;;;;;;;;0.00;0.00;;;;;14.12;71.60;101362.44;5046971;28;45365;-80
2021/09/24 02:40:08;;;;;;;;;0.00;0.00;;;;;15.65;71.85;101604.03;5041832;28;45268;-80
2021/09/24 02:42:42;;;;;;;;;0.00;0.00;;;;;14.37;71.93;101394.84;5039344;28;45440;-80
2021/09/24 02:45:17;;;;;;;;;0.00;0.00;;;;;14.42;71.60;101407.91;5043170;28;45240;-80
2021/09/24 02:47:42;;;;;;;;;0.00;0.00;;;;;15.25;71.49;101547.97;5042747;28;46270;-80
2021/09/24 02:50:20;;;;;;;;;0.00;0.00;;;;;15.30;71.47;101534.88;5042430;28;45430;-80
2021/09/24 02:52:53;;;;;;;;;0.00;0.00;;;;;15.92;71.68;101629.41;5041698;28;45392;-80
2021/09/24 02:55:38;;;;;;;;;0.00;0.00;;;;;15.79;71.60;101602.28;5042960;28;45440;-80
2021/09/24 02:58:11;;;;;;;;;0.00;0.00;;;;;14.67;71.42;101413.25;5042629;28;46174;-80
2021/09/24 03:00:44;;;;;;;;;0.00;0.00;;;;;14.98;71.12;101459.66;5042549;28;45287;-80
2021/09/24 03:03:33;;;;;;;;;0.00;0.00;;;;;15.39;70.79;101537.50;5043061;28;45247;-80
2021/09/24 03:06:04;;;;;;;;;0.00;0.00;;;;;14.46;71.34;101398.34;5027799;28;45471;-80
2021/09/24 03:08:32;;;;;;;;;1.00;0.00;;;;;14.44;71.54;101396.59;5042392;28;45632;-80
2021/09/24 03:11:00;;;;;;;;;0.00;0.00;;;;;15.90;71.55;101620.66;5042723;28;45277;-80
2021/09/24 03:13:28;;;;;;;;;0.00;0.00;;;;;15.94;71.70;101614.53;5058040;28;45386;-80
2021/09/24 03:16:04;;;;;;;;;0.00;0.00;;;;;14.31;71.37;101321.47;5042340;28;45350;-80
2021/09/24 03:18:56;;;;;;;;;0.00;0.00;;;;;16.00;71.53;101616.31;5042101;28;45616;-81
2021/09/24 03:21:32;;;;;;;;;;;;;;;;;;;;;
2021/09/24 03:24:19;;;;;;;;;0.00;0.00;;;;;15.22;70.99;101487.63;5040773;28;68316;-81
2021/09/24 03:26:50;;;;;;;;;1.50;0.00;;;;;15.71;71.09;101565.53;5043991;28;45227;-80
2021/09/24 03:29:19;;;;;;;;;0.00;0.00;;;;;14.92;71.54;101418.56;5045479;28;45504;-80
2021/09/24 03:31:48;;;;;;;;;0.00;0.00;;;;;16.02;71.23;101611.06;5034832;28;45601;-81
2021/09/24 03:34:19;;;;;;;;;1.00;1.00;;;;;16.07;71.31;101614.56;5043631;28;45446;-80
2021/09/24 03:36:51;;;;;;;;;0.00;0.00;;;;;15.17;71.21;101461.44;5045771;28;45487;-81
2021/09/24 03:39:19;;;;;;;;;0.75;0.75;;;;;14.78;71.32;101376.59;5045608;28;45449;-81
2021/09/24 03:41:44;;;;;;;;;0.00;0.00;;;;;16.17;71.11;101584.78;5045457;28;45273;-81
2021/09/24 03:48:22;;;;;;;;;0.00;0.00;;;;;15.20;70.92;101424.69;4971519;28;45652;-80
2021/09/24 03:54:20;;;;;;;;;0.00;0.00;;;;;15.18;70.73;101402.84;4937223;28;45592;-80
2021/09/24 04:00:16;;;;;;;;;0.00;0.00;;;;;15.07;70.61;101367.91;4979527;28;45305;-80
2021/09/24 04:03:12;;;;;;;;;0.00;0.00;;;;;15.73;70.56;101470.16;4962444;28;45707;-80
2021/09/24 04:05:48;;;;;;;;;0.00;0.00;;;;;15.05;70.39;101354.78;5020877;28;45354;-80
2021/09/24 04:08:23;;;;;;;;;0.00;0.00;;;;;15.18;70.58;101376.63;5025074;28;45374;-80
2021/09/24 04:11:01;;;;;;;;;0.00;0.00;;;;;15.18;70.17;101389.75;5007646;28;45496;-80
2021/09/24 04:13:34;;;;;;;;;0.00;0.00;;;;;15.70;70.16;101445.66;5025540;28;45478;-79
2021/09/24 04:16:21;;;;;;;;;0.00;0.00;;;;;16.57;70.66;101589.09;5025253;28;45324;-80
2021/09/24 04:18:54;;;;;;;;;0.00;0.00;;;;;15.23;70.02;101367.88;5025080;28;45490;-80
2021/09/24 04:21:27;;;;;;;;;1.00;0.00;;;;;16.13;69.92;101508.63;5026144;28;45309;-80
2021/09/24 04:23:57;;;;;;;;;0.75;0.75;;;;;15.93;70.24;101486.75;5035616;28;47215;-80
2021/09/24 04:26:26;;;;;;;;;0.00;0.00;;;;;16.09;70.12;101506.00;5044729;28;45376;-81
2021/09/24 04:29:23;;;;;;;;;0.00;0.00;;;;;15.25;70.39;101381.88;5044549;28;45294;-80
2021/09/24 04:31:54;;;;;;;;;0.00;0.00;;;;;15.38;70.46;101394.09;5046599;28;45697;-80
2021/09/24 04:37:42;;;;;;;;;1.25;0.00;;;;;15.56;70.15;101408.09;5011934;28;45313;-80
2021/09/24 04:40:17;;;;;;;;;0.00;0.00;;;;;15.87;70.55;101464.88;5028432;28;45295;-80
2021/09/24 04:42:45;;;;;;;;;0.00;0.00;;;;;16.63;70.42;101595.22;5025340;28;45442;-80
2021/09/24 04:45:16;;;;;;;;;0.00;0.00;;;;;15.28;69.99;101350.41;5024231;28;45698;-80
2021/09/24 04:47:41;;;;;;;;;0.00;0.00;;;;;15.49;70.21;101391.44;5025246;28;45500;-81
2021/09/24 04:50:10;;;;;;;;;0.25;0.00;;;;;15.37;70.28;101373.97;5042503;28;45406;-80
2021/09/24 04:52:44;;;;;;;;;0.00;0.00;;;;;16.27;70.32;101542.75;5044107;28;45223;-80
2021/09/24 04:55:19;;;;;;;;;0.00;0.00;;;;;15.49;69.90;101395.84;5044499;28;45410;-80
2021/09/24 04:58:02;;;;;;;;;0.00;0.00;;;;;15.38;69.94;101369.63;5042846;28;45221;-80
2021/09/24 05:00:33;;;;;;;;;0.00;0.00;;;;;15.69;70.63;101427.28;5033695;28;45422;-79
2021/09/24 05:03:15;;;;;;;;;1.00;0.00;;;;;15.85;70.22;101459.63;5036951;28;46080;-80
2021/09/24 05:06:02;;;;;;;;;0.25;0.00;;;;;16.27;70.13;101538.38;5036803;28;46864;-79
2021/09/24 05:08:35;;;;;;;;;0.00;0.00;;;;;15.33;70.46;101367.00;5043791;28;45285;-79
2021/09/24 05:11:06;;;;;;;;;0.25;0.00;;;;;15.36;70.15;101393.22;5042656;28;45478;-80
2021/09/24 05:13:39;;;;;;;;;0.25;0.00;;;;;15.54;70.27;101410.69;5043962;28;45349;-80
2021/09/24 05:16:20;;;;;;;;;0.00;0.00;;;;;16.68;70.35;101606.56;5043903;28;46329;-81
2021/09/24 05:18:46;;;;;;;;;0.00;0.00;;;;;16.70;70.73;101592.53;5043760;28;45297;-80
2021/09/24 05:21:19;;;;;;;;;0.00;0.00;;;;;15.61;70.52;101401.06;5037902;28;45246;-79
2021/09/24 05:24:03;;;;;;;;;1.00;1.00;;;;;16.71;70.36;101591.69;5044391;28;45277;-80
2021/09/24 05:26:37;;;;;;;;;0.00;0.00;;;;;16.26;70.66;101525.25;5044103;28;45284;-80
2021/09/24 05:29:14;;;;;;;;;0.00;0.00;;;;;15.63;70.70;101408.94;5043279;28;45326;-80
2021/09/24 05:31:51;;;;;;;;;0.00;0.00;;;;;16.65;70.10;101585.56;5041945;28;45324;-80
2021/09/24 05:34:20;;;;;;;;;0.00;0.00;;;;;15.74;69.99;101424.66;5043772;28;45223;-80
2021/09/24 05:36:48;;;;;;;;;0.00;0.00;;;;;16.28;70.10;101491.94;5043520;28;45417;-81
2021/09/24 05:39:13;;;;;;;;;1.25;0.00;;;;;15.58;70.09;101386.19;5043389;28;45326;-80
2021/09/24 05:41:41;;;;;;;;;0.50;0.50;;;;;15.83;69.84;101429.88;5043455;28;45168;-82
2021/09/24 05:44:09;;;;;;;;;2.00;0.00;;;;;15.54;69.66;101391.44;5040951;28;45257;-80
2021/09/24 05:46:41;;;;;;;;;0.00;0.00;;;;;15.73;70.56;101418.53;5043308;28;46632;-81
2021/09/24 05:49:08;;;;;;;;;0.00;0.00;;;;;15.79;70.39;101420.25;5033813;28;45308;-81
2021/09/24 05:51:40;;;;;;;;;0.00;0.00;;;;;15.95;70.00;101444.72;5037315;28;45560;-83
2021/09/24 05:54:22;;;;;;;;;0.00;0.00;;;;;16.20;69.96;101487.59;5040522;28;45453;-80
2021/09/24 05:57:11;;;;;;;;;1.00;0.00;;;;;15.80;69.85;101412.38;5042504;28;45394;-80
2021/09/24 06:00:20;;;;;;;;;0.00;0.00;;;;;15.42;70.08;101347.75;5042946;28;45288;-80
2021/09/24 06:03:01;;;;;;;;;0.00;0.00;;;;;16.52;70.04;101530.41;5042958;28;45402;-79
2021/09/24 06:12:52;;;;;;;;;0.00;0.00;;;;;16.93;69.86;101588.06;5000727;28;45511;-79
2021/09/24 06:15:48;;;;;;;;;;;;;;;;;;;;;
2021/09/24 06:18:43;;;;;;;;;0.00;0.00;;;;;16.96;69.80;101588.06;5023753;28;62551;-78
2021/09/24 06:21:36;;;;;;;;;1.00;0.00;;;;;16.81;69.99;101589.00;5040975;28;46906;-79
2021/09/24 06:24:57;;;;;;;;;1.75;1.25;;;;;16.62;70.07;101569.78;5044228;28;45059;-78
2021/09/24 06:27:39;;;;;;;;;3.00;0.00;;;;;16.71;70.48;101575.91;5044657;28;45279;-77
2021/09/24 06:30:32;;;;;;;;;0.00;0.00;;;;;15.42;69.91;101356.50;5023805;28;45666;-80
2021/09/24 06:33:23;;;;;;;;;;;;;;;;;;;;;
2021/09/24 06:36:25;;;;;;;;;0.00;0.00;;;;;16.13;69.98;101449.09;5021204;28;73175;-77
2021/09/24 06:39:22;;;;;;;;;0.00;0.00;;;;;16.98;70.16;101578.41;4970824;28;45491;-83
2021/09/24 06:42:06;;;;;;;;;;;;;;;;;;;;;
2021/09/24 06:44:53;;;;;;;;;0.00;0.00;;;;;16.63;69.86;101526.88;5022752;28;74431;-79
2021/09/24 06:47:19;;;;;;;;;0.00;0.00;;;;;16.71;69.53;101514.56;5028774;28;45340;-78
2021/09/24 06:49:45;;;;;;;;;0.50;0.50;;;;;16.10;69.48;101412.34;5010566;28;46387;-79
2021/09/24 06:52:13;;;;;;;;;0.00;0.00;;;;;16.64;69.42;101500.59;5021669;28;45436;-81
2021/09/24 06:55:31;;;;;;;;;;;;;;;;;;;;;
2021/09/24 06:58:23;;;;;;;;;1.00;1.00;;;;;16.58;68.82;101490.97;5012075;28;73366;-81
2021/09/24 07:00:48;;;;;;;;;0.00;0.00;;;;;16.18;68.59;101397.44;5020050;28;45533;-80
2021/09/24 07:03:22;;;;;;;;;0.75;0.00;;;;;16.13;68.95;101393.94;5017671;28;45233;-79
2021/09/24 07:05:50;;;;;;;;;0.00;0.00;;;;;16.90;68.89;101494.31;5016999;28;45415;-76
2021/09/24 07:08:29;;;;;;;;;0.00;0.00;;;;;17.48;68.92;101578.16;5021707;28;45333;-80
2021/09/24 07:11:33;;;;;;;;;0.00;0.00;;;;;16.76;68.75;101448.81;5021517;28;45556;-80
2021/09/24 07:14:24;;;;;;;;;1.75;0.00;;;;;16.60;68.38;101406.84;5011224;28;45431;-78
2021/09/24 07:19:48;;;;;;;;;1.00;1.00;;;;;17.64;68.17;101599.97;5024269;28;45512;-79
2021/09/24 07:22:15;;;;;;;;;1.00;0.50;;;;;16.96;68.05;101485.50;5027836;28;45360;-79
2021/09/24 07:24:49;;;;;;;;;0.00;0.00;;;;;16.66;67.50;101414.69;5011431;28;45271;-79
2021/09/24 07:27:15;;;;;;;;;0.00;0.00;;;;;16.49;67.39;101382.38;5009066;28;46692;-79
2021/09/24 07:29:40;;;;;;;;;0.00;0.00;;;;;16.55;66.80;101384.97;5007153;28;45648;-78
2021/09/24 07:32:06;;;;;;;;;0.00;0.00;;;;;17.80;66.81;101586.72;5006805;28;45558;-77
2021/09/24 07:34:32;;;;;;;;;0.25;0.25;;;;;17.27;67.18;101495.84;5051663;28;45782;-77
2021/09/24 07:37:05;;;;;;;;;0.00;0.00;;;;;17.37;66.85;101503.69;5049201;28;45572;-79
2021/09/24 07:39:36;;;;;;;;;0.00;0.00;;;;;17.04;66.57;101464.41;5042419;28;45464;-80
2021/09/24 07:42:01;;;;;;;;;0.00;0.00;;;;;17.06;66.98;101481.97;5035366;28;45501;-79
2021/09/24 07:44:47;;;;;;;;;0.00;0.00;;;;;16.93;66.55;101423.28;5024992;28;45372;-79
2021/09/24 07:47:23;;;;;;;;;0.00;0.00;;;;;16.78;66.40;101397.13;5040735;28;45676;-81
2021/09/24 07:49:57;;;;;;;;;1.00;1.00;;;;;17.21;66.03;101438.00;5054027;28;45423;-81
2021/09/24 07:52:30;;;;;;;;;0.00;0.00;;;;;16.61;66.32;101337.63;5037558;28;45437;-82
2021/09/24 07:55:29;;;;;;;;;1.00;1.00;;;;;16.55;65.91;101322.78;5036806;28;45737;-82
2021/09/24 08:01:07;;;;;;;;;0.00;0.00;;;;;16.79;65.12;101346.28;5049013;28;45496;-80
2021/09/24 08:03:33;;;;;;;;;1.50;1.00;;;;;16.88;65.22;101375.13;5034341;28;44756;-80
2021/09/24 08:06:05;;;;;;;;;1.00;1.00;;;;;17.04;64.82;101406.56;5038012;28;45666;-82
2021/09/24 08:08:33;;;;;;;;;2.00;0.00;;;;;17.53;65.03;101472.84;5045092;28;47337;-81
2021/09/24 08:11:57;;;;;;;;;0.00;0.00;;;;;18.27;64.61;101576.66;5036298;28;45594;-80
2021/09/24 08:14:23;;;;;;;;;0.75;0.25;;;;;17.39;64.17;101401.94;5058496;28;45518;-78
2021/09/24 08:17:08;;;;;;;;;1.00;1.00;;;;;17.79;63.60;101463.84;5048884;28;45546;-78
2021/09/24 08:19:43;;;;;;;;;0.25;0.00;;;;;18.45;63.84;101565.06;5047493;28;45454;-79
2021/09/24 08:22:16;;;;;;;;;0.00;0.00;;;;;17.57;62.99;101409.63;5045918;28;45807;-79
2021/09/24 08:24:41;;;;;;;;;0.00;0.00;;;;;17.44;62.94;101379.06;5041945;28;45430;-78
2021/09/24 08:27:07;;;;;;;;;0.00;0.00;;;;;18.38;62.18;101529.13;5050232;28;45331;-79
2021/09/24 08:29:45;;;;;;;;;;;;;;;;;;;;;
2021/09/24 08:32:11;;;;;;;;;0.00;0.00;;;;;18.03;61.64;101464.44;5039664;28;72568;-78
2021/09/24 08:34:44;;;;;;;;;0.00;0.00;;;;;17.68;61.86;101392.84;5027908;28;45818;-78
2021/09/24 08:37:12;;;;;;;;;0.00;0.00;;;;;18.51;61.69;101521.03;5042109;28;45659;-80
2021/09/24 08:39:37;;;;;;;;;0.00;0.00;;;;;17.89;61.21;101404.91;5042014;28;47053;-80
2021/09/24 08:42:03;;;;;;;;;0.00;0.00;;;;;18.15;61.24;101437.13;5053181;28;45442;-80
2021/09/24 08:44:37;;;;;;;;;0.00;0.00;;;;;17.99;61.09;101408.31;5059448;28;45442;-80
2021/09/24 08:47:03;;;;;;;;;1.00;1.00;;;;;18.60;61.05;101484.03;5049188;28;46559;-80
2021/09/24 08:49:29;;;;;;;;;0.00;0.00;;;;;19.43;61.25;101599.88;5025526;28;48310;-81
2021/09/24 08:51:54;;;;;;;;;0.00;0.00;;;;;19.33;60.63;101550.75;5026027;28;45381;-81
2021/09/24 08:54:20;;;;;;;;;0.00;0.00;;;;;18.78;60.77;101461.81;5043331;28;45432;-78
2021/09/24 08:56:48;;;;;;;;;0.50;0.00;;;;;19.43;60.67;101586.69;5045447;28;45555;-78
2021/09/24 08:59:14;;;;;;;;;1.50;0.25;;;;;19.36;60.81;101603.50;5046049;28;45684;-78
2021/09/24 09:02:00;;;;;;;;;1.00;0.00;;;;;19.30;61.14;101600.94;5046249;28;45335;-79
2021/09/24 09:04:34;;;;;;;;;3.75;0.25;;;;;19.26;61.26;101600.09;5050938;28;45425;-79
2021/09/24 09:07:09;;;;;;;;;2.00;2.00;;;;;19.08;61.44;101583.63;5042430;28;45887;-80
2021/09/24 09:09:37;;;;;;;;;1.00;1.00;;;;;19.16;61.57;101595.84;5034611;28;46618;-81
2021/09/24 09:12:27;;;;;;;;;2.00;0.50;;;;;19.05;61.63;101580.16;5017069;28;45932;-79
2021/09/24 09:15:13;;;;;;;;;0.50;0.00;;;;;19.10;61.61;101586.25;5038501;28;45443;-81
2021/09/24 09:17:40;;;;;;;;;2.50;2.50;;;;;19.04;61.40;101574.00;5037898;28;45477;-80
2021/09/24 09:20:13;;;;;;;;;2.25;1.25;;;;;19.15;61.41;101594.13;5036064;28;47035;-79
2021/09/24 09:22:39;;;;;;;;;0.75;0.75;;;;;19.13;61.59;101607.31;5041771;28;45730;-78
2021/09/24 09:25:23;;;;;;;;;2.75;0.75;;;;;19.10;61.43;101607.38;5041726;28;45467;-78
2021/09/24 09:27:50;;;;;;;;;0.00;0.00;;;;;19.09;61.51;101611.78;5038710;28;45473;-77
2021/09/24 09:30:16;;;;;;;;;1.00;1.00;;;;;19.11;61.44;101601.19;5041886;28;45632;-77
2021/09/24 09:32:56;;;;;;;;;0.00;0.00;;;;;19.04;61.54;101594.22;5039374;28;45450;-77
2021/09/24 09:35:22;;;;;;;;;0.00;0.00;;;;;18.98;61.78;101572.31;5016381;28;45292;-77
2021/09/24 09:37:48;;;;;;;;;0.00;0.00;;;;;19.22;61.63;101594.00;5017596;28;45250;-77
2021/09/24 09:40:16;;;;;;;;;0.50;0.50;;;;;19.17;61.24;101587.06;5027291;28;45158;-82
2021/09/24 09:42:44;;;;;;;;;0.00;0.00;;;;;19.29;61.29;101605.34;5046598;28;45466;-79
2021/09/24 09:45:13;;;;;;;;;1.00;1.00;;;;;19.33;61.36;101604.41;5035679;28;45507;-80
2021/09/24 09:47:40;;;;;;;;;0.00;0.00;;;;;19.10;61.05;101583.63;5023677;28;45433;-79
2021/09/24 09:50:13;;;;;;;;;0.00;0.00;;;;;19.22;61.51;101607.22;4995443;28;45543;-78
2021/09/24 09:53:04;;;;;;;;;0.75;0.75;;;;;19.22;61.57;101601.94;5016815;28;45511;-78
2021/09/24 09:55:33;;;;;;;;;1.00;1.00;;;;;19.16;61.44;101598.50;5041954;28;45521;-76
2021/09/24 09:58:02;;;;;;;;;1.00;1.00;;;;;19.12;61.81;101592.41;5016959;28;45331;-80
2021/09/24 10:00:31;;;;;;;;;1.00;1.00;;;;;19.18;61.27;101602.00;5032869;28;46208;-81
2021/09/24 10:03:02;;;;;;;;;2.00;0.00;;;;;19.23;61.54;101598.38;5026517;28;45352;-83
2021/09/24 10:05:38;;;;;;;;;0.75;0.00;;;;;19.31;61.34;101594.75;5017273;28;45455;-80
2021/09/24 10:08:26;;;;;;;;;0.50;0.00;;;;;19.19;60.69;101565.03;5019930;28;44861;-80
2021/09/24 10:11:08;;;;;;;;;0.00;0.00;;;;;19.43;60.41;101584.03;5009510;28;47412;-79
2021/09/24 10:13:52;;;;;;;;;0.00;0.00;;;;;19.60;60.09;101590.84;5032741;28;45408;-79
2021/09/24 10:16:18;;;;;;;;;0.00;0.00;;;;;19.57;59.75;101557.41;5025661;28;45450;-80
2021/09/24 10:18:44;;;;;;;;;0.00;0.00;;;;;19.72;59.79;101569.50;5041738;28;45174;-81
2021/09/24 10:21:09;;;;;;;;;0.00;0.00;;;;;19.78;58.61;101557.09;5055927;28;45057;-80
2021/09/24 10:23:35;;;;;;;;;0.00;0.00;;;;;20.00;58.35;101584.00;5037734;28;44781;-80
2021/09/24 10:26:08;;;;;;;;;0.00;0.00;;;;;20.02;58.30;101587.50;5027517;28;45605;-80
2021/09/24 10:28:36;;;;;;;;;0.00;0.00;;;;;20.00;57.95;101587.53;5031175;28;45126;-80
2021/09/24 10:31:03;;;;;;;;;0.00;0.00;;;;;19.85;58.49;101566.66;5026884;28;45336;-80
2021/09/24 10:33:55;;;;;;;;;1.00;1.00;;;;;19.88;58.00;101574.53;5040330;28;45491;-81
2021/09/24 10:36:43;;;;;;;;;0.00;0.00;;;;;19.86;57.85;101579.84;5025455;28;45376;-78
2021/09/24 10:39:33;;;;;;;;;0.00;0.00;;;;;19.73;57.36;101579.16;5050436;28;45595;-79
2021/09/24 10:42:20;;;;;;;;;0.00;0.00;;;;;19.63;57.17;101581.06;5033327;28;46293;-79
2021/09/24 10:45:10;;;;;;;;;0.50;0.25;;;;;19.73;56.97;101586.22;5038008;28;44831;-81
2021/09/24 10:48:01;;;;;;;;;0.00;0.00;;;;;19.77;57.46;101585.25;5055441;27;45464;-78
2021/09/24 10:50:30;;;;;;;;;0.00;0.00;;;;;19.84;57.33;101580.75;5042597;28;45336;-81
2021/09/24 10:53:07;;;;;;;;;0.50;0.00;;;;;19.88;57.09;101578.03;5041134;28;45539;-79
2021/09/24 10:55:33;;;;;;;;;0.25;0.25;;;;;19.91;57.05;101556.00;5045568;28;45319;-78
2021/09/24 10:58:00;;;;;;;;;0.00;0.00;;;;;20.08;57.25;101574.19;5050717;28;45340;-79
2021/09/24 11:00:28;;;;;;;;;1.25;0.00;;;;;20.09;57.13;101567.16;5040755;28;45368;-78
2021/09/24 11:03:16;;;;;;;;;2.00;0.00;;;;;20.08;56.99;101573.31;5040753;28;45537;-78
2021/09/24 11:06:05;;;;;;;;;0.00;0.00;;;;;19.91;57.05;101561.28;5017552;28;45402;-80
2021/09/24 11:08:37;;;;;;;;;1.00;0.00;;;;;19.90;57.17;101567.44;5038009;28;45464;-80
2021/09/24 11:11:06;;;;;;;;;0.00;0.00;;;;;20.02;57.43;101565.50;5044023;28;45456;-79
2021/09/24 11:13:33;;;;;;;;;0.00;0.00;;;;;20.02;56.95;101541.72;5040076;28;45606;-81
2021/09/24 11:16:04;;;;;;;;;0.00;0.00;;;;;19.99;56.19;101535.56;5039906;28;45581;-80
2021/09/24 11:18:58;;;;;;;;;0.00;0.00;;;;;20.03;56.24;101543.47;5038824;28;45415;-79
2021/09/24 11:21:31;;;;;;;;;1.50;0.75;;;;;19.95;56.86;101533.88;5039440;28;45467;-80
2021/09/24 11:23:57;;;;;;;;;0.00;0.00;;;;;19.93;56.72;101524.22;5038500;28;45548;-79
2021/09/24 11:26:32;;;;;;;;;0.00;0.00;;;;;20.07;56.22;101516.09;5038916;28;45435;-80
2021/09/24 11:29:15;;;;;;;;;0.00;0.00;;;;;20.10;56.46;101503.69;5039161;28;45383;-80
2021/09/24 11:32:04;;;;;;;;;0.00;0.00;;;;;20.27;55.89;101533.34;5036753;28;45993;-82
2021/09/24 11:34:33;;;;;;;;;0.00;0.00;;;;;20.34;56.09;101532.31;5017847;28;45698;-81
2021/09/24 11:37:31;;;;;;;;;0.25;0.25;;;;;19.69;55.69;101420.78;5016116;28;45816;-82
2021/09/24 11:40:11;;;;;;;;;0.00;0.00;;;;;19.42;55.85;101394.84;5014144;28;45550;-81
2021/09/24 11:42:43;;;;;;;;;0.00;0.00;;;;;19.05;55.69;101361.16;5020447;28;45548;-80
2021/09/24 11:45:12;;;;;;;;;0.00;0.00;;;;;19.88;56.15;101492.63;5033915;28;45466;-82
2021/09/24 11:47:54;;;;;;;;;0.00;0.00;;;;;19.09;55.84;101354.97;5001358;28;45397;-82
2021/09/24 11:50:20;;;;;;;;;0.00;0.00;;;;;19.95;56.19;101485.44;5003251;28;45409;-80
2021/09/24 11:52:51;;;;;;;;;0.00;0.00;;;;;19.99;56.23;101466.88;5013801;28;45404;-79
2021/09/24 11:58:41;;;;;;;;;0.00;0.00;;;;;19.49;55.98;101356.88;5037996;28;45456;-80
2021/09/24 12:01:06;;;;;;;;;0.00;0.00;;;;;19.44;56.14;101331.44;5003899;28;45563;-80
2021/09/24 12:03:38;;;;;;;;;0.00;0.00;;;;;20.04;55.95;101428.94;5021601;28;45493;-82
2021/09/24 12:06:10;;;;;;;;;0.00;0.00;;;;;19.62;55.81;101360.16;5022560;28;45434;-80
2021/09/24 12:08:45;;;;;;;;;0.00;0.00;;;;;20.57;55.47;101492.16;5002933;28;45909;-79
2021/09/24 12:11:14;;;;;;;;;0.00;0.00;;;;;20.61;55.53;101493.00;5020631;28;46382;-81
2021/09/24 12:13:47;;;;;;;;;0.00;0.00;;;;;20.68;55.32;101491.94;4998266;28;45688;-79
2021/09/24 12:16:24;;;;;;;;;0.00;0.00;;;;;20.43;55.08;101444.84;5027258;28;45348;-82
2021/09/24 12:19:02;;;;;;;;;1.00;0.00;;;;;20.10;54.47;101395.34;5023562;28;45377;-81
2021/09/24 12:22:14;;;;;;;;;0.00;0.00;;;;;20.68;55.14;101499.88;5034313;28;45584;-84
2021/09/24 12:24:45;;;;;;;;;0.50;0.00;;;;;20.28;54.95;101429.34;5025497;28;45376;-85
2021/09/24 12:27:26;;;;;;;;;0.00;0.00;;;;;19.56;55.22;101291.63;5040017;28;47517;-84
2021/09/24 12:29:52;;;;;;;;;1.00;0.00;;;;;20.34;54.78;101416.00;5027430;28;45461;-81
2021/09/24 12:32:20;;;;;;;;;0.00;0.00;;;;;20.73;53.97;101468.91;5040706;28;45535;-80
2021/09/24 12:34:59;;;;;;;;;0.50;0.50;;;;;20.16;54.23;101362.63;5060296;28;45567;-81
2021/09/24 12:37:44;;;;;;;;;2.00;0.00;;;;;20.93;53.69;101474.66;5047993;28;46701;-83
2021/09/24 12:40:17;;;;;;;;;0.00;0.00;;;;;20.94;53.87;101469.34;5042553;28;45907;-82
2021/09/24 12:42:53;;;;;;;;;0.00;0.00;;;;;20.46;53.15;101402.47;5039616;28;45646;-80
2021/09/24 12:45:50;;;;;;;;;0.00;0.00;;;;;21.00;53.47;101470.97;5040725;28;45655;-81
2021/09/24 12:48:15;;;;;;;;;0.00;0.00;;;;;20.56;53.99;101389.94;5063133;28;45325;-82
2021/09/24 12:50:46;;;;;;;;;1.25;1.25;;;;;20.45;53.65;101376.06;5047075;28;46007;-83
2021/09/24 12:53:15;;;;;;;;;1.00;0.00;;;;;20.23;53.81;101337.78;5040552;28;45296;-80
2021/09/24 12:55:43;;;;;;;;;0.00;0.00;;;;;20.69;53.49;101405.50;5048558;28;45259;-82
2021/09/24 12:58:11;;;;;;;;;0.00;0.00;;;;;20.67;53.43;101412.63;5057011;28;45358;-83
2021/09/24 13:00:40;;;;;;;;;0.00;0.00;;;;;20.13;53.94;101326.53;5048771;28;44670;-85
2021/09/24 13:03:05;;;;;;;;;0.50;0.00;;;;;20.89;53.98;101448.28;5054615;28;45586;-81
2021/09/24 13:05:31;;;;;;;;;0.00;0.00;;;;;20.40;53.85;101355.06;5046692;28;45442;-80